createdAt,value
2018-02-02T07:04:31.976Z,996.18
2018-02-02T07:05:31.699Z,996.20
2018-02-02T07:06:31.670Z,996.20
2018-02-02T07:07:31.649Z,996.28
2018-02-02T07:08:31.615Z,996.28
2018-02-02T07:09:31.739Z,996.27
2018-02-02T07:10:31.560Z,996.29
2018-02-02T07:11:31.533Z,996.29
2018-02-02T07:12:31.506Z,996.32
2018-02-02T07:13:31.479Z,996.36
2018-02-02T07:14:31.554Z,996.33
2018-02-02T07:15:31.424Z,996.37
2018-02-02T07:16:31.396Z,996.41
2018-02-02T07:17:31.370Z,996.37
2018-02-02T07:18:31.342Z,996.37
2018-02-02T07:19:31.314Z,996.40
2018-02-02T07:20:31.287Z,996.43
2018-02-02T07:21:31.261Z,996.43
2018-02-02T07:22:31.232Z,996.43
2018-02-02T07:23:31.205Z,996.42
2018-02-02T07:24:31.179Z,996.41
2018-02-02T07:25:31.152Z,996.42
2018-02-02T07:26:31.124Z,996.41
2018-02-02T07:27:31.097Z,996.45
2018-02-02T07:28:31.070Z,996.46
2018-02-02T07:29:31.041Z,996.51
2018-02-02T07:30:31.015Z,996.51
2018-02-02T07:31:30.987Z,996.53
2018-02-02T07:32:30.959Z,996.56
2018-02-02T07:33:30.933Z,996.55
2018-02-02T07:34:30.905Z,996.59
2018-02-02T07:35:30.878Z,996.58
2018-02-02T07:36:30.852Z,996.58
2018-02-02T07:37:30.824Z,996.61
2018-02-02T07:38:30.815Z,996.61
2018-02-02T07:39:30.769Z,996.61
2018-02-02T07:40:30.743Z,996.61
2018-02-02T07:41:30.720Z,996.61
2018-02-02T07:42:30.725Z,996.64
2018-02-02T07:43:30.910Z,996.63
2018-02-02T07:44:30.634Z,996.64
2018-02-02T07:45:30.607Z,996.66
2018-02-02T07:46:30.578Z,996.65
2018-02-02T07:47:30.551Z,996.69
2018-02-02T07:48:30.524Z,996.68
2018-02-02T07:49:30.498Z,996.70
2018-02-02T07:50:30.471Z,996.71
2018-02-02T07:51:30.442Z,996.69
2018-02-02T07:52:30.415Z,996.73
2018-02-02T07:53:30.390Z,996.68
2018-02-02T07:54:30.512Z,996.72
2018-02-02T07:55:30.335Z,996.70
2018-02-02T07:56:30.307Z,996.71
2018-02-02T07:57:30.280Z,996.72
2018-02-02T07:58:30.253Z,996.71
2018-02-02T07:59:30.326Z,996.68
2018-02-02T08:00:30.200Z,996.71
2018-02-02T08:01:30.174Z,996.71
2018-02-02T08:02:30.145Z,996.70
2018-02-02T08:03:30.118Z,996.70
2018-02-02T08:04:30.092Z,996.69
2018-02-02T08:05:30.064Z,996.69
2018-02-02T08:06:30.040Z,996.68
2018-02-02T08:07:30.010Z,996.70
2018-02-02T08:08:29.983Z,996.72
2018-02-02T08:09:30.211Z,996.75
2018-02-02T08:10:29.930Z,996.74
2018-02-02T08:11:29.902Z,996.80
2018-02-02T08:12:29.876Z,996.81
2018-02-02T08:13:29.850Z,996.82
2018-02-02T08:14:29.821Z,996.83
2018-02-02T08:15:29.794Z,996.90
2018-02-02T08:16:29.768Z,996.86
2018-02-02T08:17:29.741Z,996.92
2018-02-02T08:18:29.714Z,996.91
2018-02-02T08:19:29.687Z,996.93
2018-02-02T08:20:29.660Z,996.94
2018-02-02T08:21:29.633Z,996.94
2018-02-02T08:22:29.607Z,996.93
2018-02-02T08:23:29.579Z,996.94
2018-02-02T08:24:29.552Z,996.90
2018-02-02T08:25:29.527Z,996.93
2018-02-02T08:26:29.499Z,996.88
2018-02-02T08:27:29.471Z,996.94
2018-02-02T08:28:29.449Z,996.91
2018-02-02T08:29:29.418Z,996.91
2018-02-02T08:30:29.390Z,996.94
2018-02-02T08:31:29.365Z,996.95
2018-02-02T08:32:29.338Z,996.96
2018-02-02T08:33:29.344Z,996.95
2018-02-02T08:34:29.434Z,996.95
2018-02-02T08:35:29.257Z,997.01
2018-02-02T08:36:29.230Z,996.94
2018-02-02T08:37:29.205Z,996.97
2018-02-02T08:38:29.176Z,997.02
2018-02-02T08:39:29.149Z,997.06
2018-02-02T08:40:29.123Z,997.04
2018-02-02T08:41:29.098Z,996.99
2018-02-02T08:42:29.070Z,997.04
2018-02-02T08:43:29.043Z,997.02
2018-02-02T08:44:29.017Z,997.06
2018-02-02T08:45:28.991Z,997.05
2018-02-02T08:46:28.964Z,997.10
2018-02-02T08:47:28.937Z,997.09
2018-02-02T08:48:28.911Z,997.09
2018-02-02T08:49:28.884Z,997.11
2018-02-02T08:50:28.858Z,997.10
2018-02-02T08:51:28.830Z,997.14
2018-02-02T08:52:28.805Z,997.10
2018-02-02T08:53:28.778Z,997.13
2018-02-02T08:54:28.751Z,997.14
2018-02-02T08:55:28.725Z,997.12
2018-02-02T08:56:28.701Z,997.19
2018-02-02T08:57:28.673Z,997.18
2018-02-02T08:58:28.645Z,997.16
2018-02-02T08:59:28.620Z,997.18
2018-02-02T09:00:28.593Z,997.20
2018-02-02T09:01:28.568Z,997.22
2018-02-02T09:02:28.539Z,997.22
2018-02-02T09:03:28.514Z,997.20
2018-02-02T09:04:28.487Z,997.23
2018-02-02T09:05:28.462Z,997.21
2018-02-02T09:06:28.435Z,997.19
2018-02-02T09:07:28.411Z,997.20
2018-02-02T09:08:28.383Z,997.20
2018-02-02T09:09:28.455Z,997.25
2018-02-02T09:10:28.329Z,997.22
2018-02-02T09:11:28.303Z,997.24
2018-02-02T09:12:28.276Z,997.28
2018-02-02T09:13:28.251Z,997.28
2018-02-02T09:14:28.224Z,997.31
2018-02-02T09:15:28.199Z,997.34
2018-02-02T09:16:28.173Z,997.32
2018-02-02T09:17:28.147Z,997.31
2018-02-02T09:18:28.370Z,997.33
2018-02-02T09:19:28.094Z,997.36
2018-02-02T09:20:28.067Z,997.34
2018-02-02T09:21:28.042Z,997.38
2018-02-02T09:22:28.064Z,997.39
2018-02-02T09:23:27.989Z,997.39
2018-02-02T09:24:27.963Z,997.40
2018-02-02T09:25:27.936Z,997.43
2018-02-02T09:26:27.910Z,997.42
2018-02-02T09:27:27.883Z,997.42
2018-02-02T09:28:27.858Z,997.46
2018-02-02T09:29:27.831Z,997.47
2018-02-02T09:30:27.804Z,997.47
2018-02-02T09:31:27.925Z,997.45
2018-02-02T09:32:27.752Z,997.45
2018-02-02T09:33:27.725Z,997.47
2018-02-02T09:34:27.699Z,997.49
2018-02-02T09:35:27.673Z,997.48
2018-02-02T09:36:27.647Z,997.55
2018-02-02T09:37:27.619Z,997.53
2018-02-02T09:38:27.592Z,997.57
2018-02-02T09:39:27.567Z,997.54
2018-02-02T09:40:27.543Z,997.54
2018-02-02T09:41:27.514Z,997.58
2018-02-02T09:42:27.486Z,997.60
2018-02-02T09:43:27.461Z,997.61
2018-02-02T09:44:27.537Z,997.58
2018-02-02T09:45:27.407Z,997.58
2018-02-02T09:46:27.381Z,997.60
2018-02-02T09:47:27.354Z,997.64
2018-02-02T09:48:27.327Z,997.65
2018-02-02T09:49:27.302Z,997.63
2018-02-02T09:50:27.274Z,997.63
2018-02-02T09:51:27.249Z,997.59
2018-02-02T09:52:27.225Z,997.59
2018-02-02T09:53:27.195Z,997.60
2018-02-02T09:54:27.168Z,997.61
2018-02-02T09:55:27.244Z,997.61
2018-02-02T09:56:27.114Z,997.64
2018-02-02T09:57:27.089Z,997.67
2018-02-02T09:58:27.061Z,997.67
2018-02-02T09:59:27.035Z,997.67
2018-02-02T10:00:27.260Z,997.66
2018-02-02T10:01:26.983Z,997.69
2018-02-02T10:02:26.955Z,997.68
2018-02-02T10:03:26.929Z,997.69
2018-02-02T10:04:26.904Z,997.67
2018-02-02T10:05:26.877Z,997.70
2018-02-02T10:06:26.850Z,997.70
2018-02-02T10:07:26.824Z,997.69
2018-02-02T10:08:26.797Z,997.67
2018-02-02T10:09:26.770Z,997.69
2018-02-02T10:10:26.744Z,997.70
2018-02-02T10:11:26.718Z,997.69
2018-02-02T10:12:26.692Z,997.66
2018-02-02T10:13:26.665Z,997.69
2018-02-02T10:14:26.638Z,997.74
2018-02-02T10:15:26.611Z,997.73
2018-02-02T10:16:26.585Z,997.72
2018-02-02T10:17:26.560Z,997.72
2018-02-02T10:18:26.782Z,997.78
2018-02-02T10:19:26.506Z,997.78
2018-02-02T10:20:26.480Z,997.84
2018-02-02T10:21:26.453Z,997.84
2018-02-02T10:22:26.426Z,997.83
2018-02-02T10:23:26.399Z,997.81
2018-02-02T10:24:26.374Z,997.85
2018-02-02T10:25:26.346Z,997.87
2018-02-02T10:26:26.319Z,997.91
2018-02-02T10:27:26.294Z,997.90
2018-02-02T10:28:26.266Z,997.93
2018-02-02T10:29:26.241Z,997.98
2018-02-02T10:30:26.214Z,997.97
2018-02-02T10:31:26.187Z,998.00
2018-02-02T10:32:26.160Z,998.00
2018-02-02T10:33:26.133Z,998.00
2018-02-02T10:34:26.107Z,998.00
2018-02-02T10:35:26.081Z,998.04
2018-02-02T10:36:26.055Z,998.01
2018-02-02T10:37:26.029Z,998.04
2018-02-02T10:38:26.102Z,998.02
2018-02-02T10:39:25.975Z,998.03
2018-02-02T10:40:25.949Z,998.06
2018-02-02T10:41:25.922Z,998.06
2018-02-02T10:42:25.896Z,998.07
2018-02-02T10:43:25.870Z,998.01
2018-02-02T10:44:25.844Z,998.05
2018-02-02T10:45:25.817Z,998.02
2018-02-02T10:46:25.791Z,998.03
2018-02-02T10:47:25.765Z,998.02
2018-02-02T10:48:25.738Z,998.01
2018-02-02T10:49:25.712Z,998.02
2018-02-02T10:50:25.686Z,997.98
2018-02-02T10:51:25.659Z,998.01
2018-02-02T10:52:25.634Z,998.02
2018-02-02T10:53:25.608Z,998.02
2018-02-02T10:54:25.580Z,998.01
2018-02-02T10:55:25.554Z,997.99
2018-02-02T10:56:25.527Z,998.04
2018-02-02T10:57:25.503Z,998.03
2018-02-02T10:58:25.476Z,998.01
2018-02-02T10:59:25.450Z,998.01
2018-02-02T11:00:25.425Z,997.98
2018-02-02T11:01:25.399Z,997.93
2018-02-02T11:02:25.372Z,997.95
2018-02-02T11:03:25.345Z,997.95
2018-02-02T11:04:25.320Z,997.98
2018-02-02T11:05:25.295Z,997.95
2018-02-02T11:06:25.267Z,997.96
2018-02-02T11:07:25.242Z,997.97
2018-02-02T11:08:25.217Z,997.96
2018-02-02T11:09:25.195Z,997.96
2018-02-02T11:10:25.165Z,997.93
2018-02-02T11:11:25.144Z,997.92
2018-02-02T11:12:25.113Z,997.97
2018-02-02T11:13:25.088Z,997.92
2018-02-02T11:14:25.065Z,997.94
2018-02-02T11:15:25.036Z,997.91
2018-02-02T11:16:25.011Z,997.92
2018-02-02T11:17:24.986Z,997.92
2018-02-02T11:18:24.959Z,997.94
2018-02-02T11:19:24.933Z,997.89
2018-02-02T11:20:24.908Z,997.90
2018-02-02T11:21:24.883Z,997.89
2018-02-02T11:22:24.858Z,997.92
2018-02-02T11:23:24.831Z,997.87
2018-02-02T11:24:24.811Z,997.89
2018-02-02T11:25:24.781Z,997.88
2018-02-02T11:26:24.756Z,997.87
2018-02-02T11:27:24.734Z,997.81
2018-02-02T11:28:24.806Z,997.82
2018-02-02T11:29:24.680Z,997.80
2018-02-02T11:30:24.660Z,997.84
2018-02-02T11:31:24.630Z,997.80
2018-02-02T11:32:24.604Z,997.77
2018-02-02T11:33:24.580Z,997.79
2018-02-02T11:34:24.553Z,997.76
2018-02-02T11:35:24.527Z,997.77
2018-02-02T11:36:24.503Z,997.77
2018-02-02T11:37:24.479Z,997.73
2018-02-02T11:38:24.452Z,997.75
2018-02-02T11:39:24.428Z,997.77
2018-02-02T11:40:24.403Z,997.78
2018-02-02T11:41:24.378Z,997.79
2018-02-02T11:42:24.352Z,997.84
2018-02-02T11:43:24.327Z,997.85
2018-02-02T11:44:24.553Z,997.86
2018-02-02T11:45:24.278Z,997.89
2018-02-02T11:46:24.251Z,997.92
2018-02-02T11:47:24.227Z,997.95
2018-02-02T11:48:24.203Z,997.92
2018-02-02T11:49:24.178Z,997.87
2018-02-02T11:50:24.151Z,997.89
2018-02-02T11:51:24.127Z,997.90
2018-02-02T11:52:24.103Z,997.92
2018-02-02T11:53:24.080Z,997.91
2018-02-02T11:54:24.053Z,997.92
2018-02-02T11:55:24.029Z,997.94
2018-02-02T11:56:24.002Z,997.99
2018-02-02T11:57:23.980Z,997.97
2018-02-02T11:58:23.956Z,998.00
2018-02-02T11:59:23.927Z,997.98
2018-02-02T12:00:23.909Z,997.96
2018-02-02T12:01:23.878Z,997.97
2018-02-02T12:02:24.004Z,997.99
2018-02-02T12:03:23.830Z,997.99
2018-02-02T12:04:23.805Z,998.05
2018-02-02T12:05:23.781Z,998.04
2018-02-02T12:06:23.754Z,998.05
2018-02-02T12:07:23.731Z,998.05
2018-02-02T12:08:23.706Z,998.06
2018-02-02T12:09:23.833Z,998.07
2018-02-02T12:10:23.656Z,997.98
2018-02-02T12:11:23.632Z,998.04
2018-02-02T12:12:23.607Z,998.05
2018-02-02T12:13:23.584Z,998.04
2018-02-02T12:14:23.557Z,998.05
2018-02-02T12:15:23.534Z,998.04
2018-02-02T12:16:23.510Z,998.09
2018-02-02T12:17:23.485Z,998.07
2018-02-02T12:18:23.458Z,998.08
2018-02-02T12:19:23.434Z,998.12
2018-02-02T12:20:23.411Z,998.12
2018-02-02T12:21:23.385Z,998.11
2018-02-02T12:22:23.510Z,998.11
2018-02-02T12:23:23.337Z,998.10
2018-02-02T12:24:23.311Z,998.10
2018-02-02T12:25:23.288Z,998.12
2018-02-02T12:26:23.263Z,998.14
2018-02-02T12:27:23.237Z,998.11
2018-02-02T12:28:23.213Z,998.10
2018-02-02T12:29:23.190Z,998.10
2018-02-02T12:30:23.164Z,998.10
2018-02-02T12:31:23.139Z,998.11
2018-02-02T12:32:23.115Z,998.12
2018-02-02T12:33:23.092Z,998.11
2018-02-02T12:34:23.066Z,998.10
2018-02-02T12:35:23.041Z,998.09
2018-02-02T12:36:23.016Z,998.11
2018-02-02T12:37:22.992Z,998.11
2018-02-02T12:38:22.967Z,998.17
2018-02-02T12:39:22.943Z,998.18
2018-02-02T12:40:22.919Z,998.18
2018-02-02T12:41:22.893Z,998.20
2018-02-02T12:42:22.870Z,998.23
2018-02-02T12:43:22.994Z,998.25
2018-02-02T12:44:22.818Z,998.23
2018-02-02T12:45:22.796Z,998.25
2018-02-02T12:46:22.769Z,998.24
2018-02-02T12:47:22.745Z,998.18
2018-02-02T12:48:22.720Z,998.21
2018-02-02T12:49:22.696Z,998.23
2018-02-02T12:50:24.447Z,998.24
2018-02-02T12:51:22.644Z,998.24
2018-02-02T12:52:22.625Z,998.25
2018-02-02T12:53:22.595Z,998.25
2018-02-02T12:54:22.570Z,998.27
2018-02-02T12:55:22.544Z,998.27
2018-02-02T12:56:22.520Z,998.25
2018-02-02T12:57:22.496Z,998.26
2018-02-02T12:58:22.470Z,998.24
2018-02-02T12:59:22.445Z,998.22
2018-02-02T13:00:22.419Z,998.25
2018-02-02T13:01:22.395Z,998.23
2018-02-02T13:02:22.369Z,998.26
2018-02-02T13:03:22.343Z,998.25
2018-02-02T13:04:22.320Z,998.29
2018-02-02T13:05:22.297Z,998.29
2018-02-02T13:06:22.268Z,998.31
2018-02-02T13:07:22.246Z,998.32
2018-02-02T13:08:22.219Z,998.25
2018-02-02T13:09:22.194Z,998.29
2018-02-02T13:10:22.168Z,998.31
2018-02-02T13:11:22.143Z,998.31
2018-02-02T13:12:22.120Z,998.29
2018-02-02T13:13:22.194Z,998.30
2018-02-02T13:14:22.070Z,998.31
2018-02-02T13:15:22.044Z,998.35
2018-02-02T13:16:22.021Z,998.32
2018-02-02T13:17:21.997Z,998.31
2018-02-02T13:18:22.221Z,998.37
2018-02-02T13:19:21.945Z,998.34
2018-02-02T13:20:21.922Z,998.35
2018-02-02T13:21:21.896Z,998.37
2018-02-02T13:22:21.870Z,998.37
2018-02-02T13:23:22.246Z,998.41
2018-02-02T13:24:21.823Z,998.44
2018-02-02T13:25:21.798Z,998.38
2018-02-02T13:26:21.772Z,998.40
2018-02-02T13:27:21.748Z,998.39
2018-02-02T13:28:21.724Z,998.41
2018-02-02T13:29:21.699Z,998.38
2018-02-02T13:30:21.674Z,998.38
2018-02-02T13:31:21.650Z,998.39
2018-02-02T13:32:21.625Z,998.41
2018-02-02T13:33:21.600Z,998.39
2018-02-02T13:34:21.576Z,998.38
2018-02-02T13:35:21.551Z,998.43
2018-02-02T13:36:21.527Z,998.45
2018-02-02T13:37:21.505Z,998.43
2018-02-02T13:38:21.477Z,998.45
2018-02-02T13:39:21.452Z,998.43
2018-02-02T13:40:21.428Z,998.45
2018-02-02T13:41:21.403Z,998.43
2018-02-02T13:42:21.529Z,998.45
2018-02-02T13:43:21.353Z,998.45
2018-02-02T13:44:21.329Z,998.42
2018-02-02T13:45:21.306Z,998.47
2018-02-02T13:46:21.279Z,998.43
2018-02-02T13:47:21.255Z,998.46
2018-02-02T13:48:21.382Z,998.45
2018-02-02T13:49:21.206Z,998.46
2018-02-02T13:50:21.180Z,998.45
2018-02-02T13:51:21.155Z,998.46
2018-02-02T13:52:21.132Z,998.48
2018-02-02T13:53:21.107Z,998.48
2018-02-02T13:54:21.080Z,998.51
2018-02-02T13:55:21.055Z,998.52
2018-02-02T13:56:21.032Z,998.46
2018-02-02T13:57:21.006Z,998.48
2018-02-02T13:58:20.981Z,998.45
2018-02-02T13:59:20.957Z,998.47
2018-02-02T14:00:20.932Z,998.48
2018-02-02T14:01:20.907Z,998.44
2018-02-02T14:02:20.880Z,998.49
2018-02-02T14:03:20.856Z,998.44
2018-02-02T14:04:20.831Z,998.48
2018-02-02T14:05:20.806Z,998.50
2018-02-02T14:06:20.780Z,998.50
2018-02-02T14:07:20.757Z,998.49
2018-02-02T14:08:20.738Z,998.52
2018-02-02T14:09:20.707Z,998.53
2018-02-02T14:10:20.680Z,998.49
2018-02-02T14:11:20.655Z,998.52
2018-02-02T14:12:20.632Z,998.51
2018-02-02T14:13:20.607Z,998.53
2018-02-02T14:14:20.831Z,998.55
2018-02-02T14:15:20.556Z,998.57
2018-02-02T14:16:20.530Z,998.57
2018-02-02T14:17:20.507Z,998.57
2018-02-02T14:18:20.532Z,998.58
2018-02-02T14:19:20.455Z,998.57
2018-02-02T14:20:20.432Z,998.59
2018-02-02T14:21:20.408Z,998.61
2018-02-02T14:22:20.379Z,998.61
2018-02-02T14:23:20.356Z,998.62
2018-02-02T14:24:20.581Z,998.60
2018-02-02T14:25:20.305Z,998.66
2018-02-02T14:26:20.279Z,998.66
2018-02-02T14:27:20.254Z,998.62
2018-02-02T14:28:20.229Z,998.64
2018-02-02T14:29:20.455Z,998.63
2018-02-02T14:30:20.180Z,998.66
2018-02-02T14:31:20.155Z,998.64
2018-02-02T14:32:20.133Z,998.66
2018-02-02T14:33:20.104Z,998.68
2018-02-02T14:34:20.079Z,998.66
2018-02-02T14:35:20.054Z,998.69
2018-02-02T14:36:20.028Z,998.71
2018-02-02T14:37:20.004Z,998.72
2018-02-02T14:38:19.978Z,998.72
2018-02-02T14:39:19.952Z,998.74
2018-02-02T14:40:19.927Z,998.77
2018-02-02T14:41:19.906Z,998.83
2018-02-02T14:42:19.877Z,998.80
2018-02-02T14:43:19.851Z,998.82
2018-02-02T14:44:19.827Z,998.82
2018-02-02T14:45:20.053Z,998.83
2018-02-02T14:46:19.776Z,998.88
2018-02-02T14:47:19.751Z,998.88
2018-02-02T14:48:19.726Z,998.87
2018-02-02T14:49:19.701Z,998.91
2018-02-02T14:50:19.857Z,998.86
2018-02-02T14:51:19.651Z,998.89
2018-02-02T14:52:19.626Z,998.89
2018-02-02T14:53:19.602Z,998.90
2018-02-02T14:54:19.574Z,998.94
2018-02-02T14:55:19.550Z,998.96
2018-02-02T14:56:19.525Z,998.97
2018-02-02T14:57:19.500Z,998.94
2018-02-02T14:58:19.477Z,998.93
2018-02-02T14:59:19.448Z,998.97
2018-02-02T15:00:19.425Z,998.98
2018-02-02T15:01:19.399Z,999.02
2018-02-02T15:02:19.372Z,999.00
2018-02-02T15:03:19.349Z,999.04
2018-02-02T15:04:19.324Z,999.06
2018-02-02T15:05:19.298Z,999.05
2018-02-02T15:06:19.272Z,999.06
2018-02-02T15:07:19.247Z,999.08
2018-02-02T15:08:19.221Z,999.08
2018-02-02T15:09:19.196Z,999.09
2018-02-02T15:10:19.171Z,999.10
2018-02-02T15:11:19.146Z,999.12
2018-02-02T15:12:19.120Z,999.10
2018-02-02T15:13:19.095Z,999.14
2018-02-02T15:14:19.069Z,999.13
2018-02-02T15:15:19.042Z,999.13
2018-02-02T15:16:19.018Z,999.14
2018-02-02T15:17:19.244Z,999.12
2018-02-02T15:18:18.968Z,999.13
2018-02-02T15:19:18.942Z,999.17
2018-02-02T15:20:18.916Z,999.16
2018-02-02T15:21:18.891Z,999.15
2018-02-02T15:22:19.114Z,999.15
2018-02-02T15:23:18.839Z,999.15
2018-02-02T15:24:18.814Z,999.17
2018-02-02T15:25:18.789Z,999.18
2018-02-02T15:26:18.762Z,999.17
2018-02-02T15:27:18.738Z,999.19
2018-02-02T15:28:18.713Z,999.16
2018-02-02T15:29:18.686Z,999.21
2018-02-02T15:30:18.660Z,999.24
2018-02-02T15:31:18.634Z,999.20
2018-02-02T15:32:18.611Z,999.20
2018-02-02T15:33:18.684Z,999.23
2018-02-02T15:34:18.558Z,999.20
2018-02-02T15:35:18.532Z,999.23
2018-02-02T15:36:18.507Z,999.23
2018-02-02T15:37:18.482Z,999.20
2018-02-02T15:38:18.456Z,999.28
2018-02-02T15:39:18.430Z,999.26
2018-02-02T15:40:18.405Z,999.26
2018-02-02T15:41:18.380Z,999.27
2018-02-02T15:42:18.354Z,999.27
2018-02-02T15:43:18.578Z,999.29
2018-02-02T15:44:18.303Z,999.32
2018-02-02T15:45:18.277Z,999.28
2018-02-02T15:46:18.251Z,999.30
2018-02-02T15:47:18.225Z,999.27
2018-02-02T15:48:18.203Z,999.31
2018-02-02T15:49:18.174Z,999.26
2018-02-02T15:50:18.148Z,999.26
2018-02-02T15:51:18.124Z,999.25
2018-02-02T15:52:18.097Z,999.26
2018-02-02T15:53:18.322Z,999.27
2018-02-02T15:54:18.047Z,999.27
2018-02-02T15:55:18.020Z,999.27
2018-02-02T15:56:17.995Z,999.25
2018-02-02T15:57:17.969Z,999.25
2018-02-02T15:58:17.944Z,999.23
2018-02-02T15:59:17.919Z,999.26
2018-02-02T16:00:17.893Z,999.27
2018-02-02T16:01:17.867Z,999.30
2018-02-02T16:02:17.841Z,999.26
2018-02-02T16:03:17.817Z,999.27
2018-02-02T16:04:17.791Z,999.26
2018-02-02T16:05:17.765Z,999.32
2018-02-02T16:06:17.740Z,999.30
2018-02-02T16:07:17.714Z,999.29
2018-02-02T16:08:17.688Z,999.28
2018-02-02T16:09:17.663Z,999.31
2018-02-02T16:10:17.638Z,999.30
2018-02-02T16:11:17.611Z,999.33
2018-02-02T16:12:17.587Z,999.33
2018-02-02T16:13:17.562Z,999.33
2018-02-02T16:14:17.534Z,999.36
2018-02-02T16:15:17.509Z,999.30
2018-02-02T16:16:17.485Z,999.32
2018-02-02T16:17:17.459Z,999.31
2018-02-02T16:18:17.433Z,999.36
2018-02-02T16:19:17.407Z,999.32
2018-02-02T16:20:17.382Z,999.33
2018-02-02T16:21:17.357Z,999.35
2018-02-02T16:22:17.330Z,999.32
2018-02-02T16:23:17.304Z,999.33
2018-02-02T16:24:17.285Z,999.33
2018-02-02T16:25:17.255Z,999.34
2018-02-02T16:26:17.227Z,999.34
2018-02-02T16:27:17.201Z,999.37
2018-02-02T16:28:17.176Z,999.35
2018-02-02T16:29:17.152Z,999.36
2018-02-02T16:30:17.128Z,999.36
2018-02-02T16:31:17.098Z,999.35
2018-02-02T16:32:17.074Z,999.38
2018-02-02T16:33:17.049Z,999.39
2018-02-02T16:34:17.021Z,999.37
2018-02-02T16:35:16.995Z,999.44
2018-02-02T16:36:16.970Z,999.40
2018-02-02T16:37:17.045Z,999.41
2018-02-02T16:38:16.919Z,999.43
2018-02-02T16:39:16.892Z,999.45
2018-02-02T16:40:16.867Z,999.47
2018-02-02T16:41:16.842Z,999.50
2018-02-02T16:42:16.816Z,999.50
2018-02-02T16:43:16.790Z,999.53
2018-02-02T16:44:16.769Z,999.51
2018-02-02T16:45:16.739Z,999.52
2018-02-02T16:46:16.715Z,999.53
2018-02-02T16:47:16.687Z,999.55
2018-02-02T16:48:16.660Z,999.61
2018-02-02T16:49:16.636Z,999.63
2018-02-02T16:50:16.610Z,999.63
2018-02-02T16:51:16.583Z,999.63
2018-02-02T16:52:16.557Z,999.66
2018-02-02T16:53:16.782Z,999.69
2018-02-02T16:54:16.504Z,999.69
2018-02-02T16:55:16.480Z,999.75
2018-02-02T16:56:16.454Z,999.79
2018-02-02T16:57:16.428Z,999.80
2018-02-02T16:58:16.402Z,999.81
2018-02-02T16:59:16.376Z,999.86
2018-02-02T17:00:16.396Z,999.88
2018-02-02T17:01:16.326Z,999.85
2018-02-02T17:02:16.299Z,999.86
2018-02-02T17:03:16.524Z,999.90
2018-02-02T17:04:16.248Z,999.88
2018-02-02T17:05:16.222Z,999.85
2018-02-02T17:06:16.196Z,999.87
2018-02-02T17:07:16.169Z,999.86
2018-02-02T17:08:16.143Z,999.86
2018-02-02T17:09:16.118Z,999.87
2018-02-02T17:10:16.092Z,999.86
2018-02-02T17:11:16.073Z,999.84
2018-02-02T17:12:16.040Z,999.85
2018-02-02T17:13:16.015Z,999.84
2018-02-02T17:14:15.989Z,999.88
2018-02-02T17:15:15.962Z,999.83
2018-02-02T17:16:15.937Z,999.83
2018-02-02T17:17:15.911Z,999.85
2018-02-02T17:18:15.884Z,999.86
2018-02-02T17:19:16.009Z,999.85
2018-02-02T17:20:15.834Z,999.87
2018-02-02T17:21:15.807Z,999.84
2018-02-02T17:22:15.780Z,999.86
2018-02-02T17:23:15.755Z,999.89
2018-02-02T17:24:15.729Z,999.88
2018-02-02T17:25:15.703Z,999.89
2018-02-02T17:26:15.676Z,999.89
2018-02-02T17:27:15.650Z,999.90
2018-02-02T17:28:15.625Z,999.86
2018-02-02T17:29:15.597Z,999.88
2018-02-02T17:30:15.572Z,999.89
2018-02-02T17:31:15.546Z,999.90
2018-02-02T17:32:15.521Z,999.92
2018-02-02T17:33:15.545Z,999.90
2018-02-02T17:34:15.466Z,999.91
2018-02-02T17:35:15.441Z,999.91
2018-02-02T17:36:15.714Z,999.94
2018-02-02T17:37:15.389Z,999.92
2018-02-02T17:38:15.363Z,999.94
2018-02-02T17:39:15.336Z,999.99
2018-02-02T17:40:15.311Z,999.96
2018-02-02T17:41:15.285Z,1000.03
2018-02-02T17:42:15.258Z,1000.02
2018-02-02T17:43:15.232Z,1000.04
2018-02-02T17:44:15.211Z,1000.04
2018-02-02T17:45:15.179Z,1000.07
2018-02-02T17:46:15.153Z,1000.04
2018-02-02T17:47:15.133Z,1000.06
2018-02-02T17:48:15.100Z,1000.07
2018-02-02T17:49:15.076Z,1000.11
2018-02-02T17:50:15.049Z,1000.06
2018-02-02T17:51:15.023Z,1000.08
2018-02-02T17:52:14.996Z,1000.10
2018-02-02T17:53:14.971Z,1000.06
2018-02-02T17:54:14.944Z,1000.07
2018-02-02T17:55:14.918Z,1000.12
2018-02-02T17:56:14.993Z,1000.12
2018-02-02T17:57:14.867Z,1000.10
2018-02-02T17:58:14.840Z,1000.12
2018-02-02T17:59:14.815Z,1000.14
2018-02-02T18:00:14.789Z,1000.15
2018-02-02T18:01:14.762Z,1000.16
2018-02-02T18:02:14.736Z,1000.12
2018-02-02T18:03:14.711Z,1000.16
2018-02-02T18:04:14.685Z,1000.10
2018-02-02T18:05:14.660Z,1000.19
2018-02-02T18:06:14.631Z,1000.17
2018-02-02T18:07:14.606Z,1000.21
2018-02-02T18:08:14.581Z,1000.18
2018-02-02T18:09:14.556Z,1000.24
2018-02-02T18:10:14.529Z,1000.28
2018-02-02T18:11:14.503Z,1000.27
2018-02-02T18:12:14.478Z,1000.25
2018-02-02T18:13:14.450Z,1000.25
2018-02-02T18:14:14.426Z,1000.28
2018-02-02T18:15:14.400Z,1000.32
2018-02-02T18:16:14.474Z,1000.31
2018-02-02T18:17:14.348Z,1000.32
2018-02-02T18:18:14.320Z,1000.32
2018-02-02T18:19:14.296Z,1000.38
2018-02-02T18:20:14.269Z,1000.37
2018-02-02T18:21:14.244Z,1000.36
2018-02-02T18:22:14.216Z,1000.36
2018-02-02T18:23:14.192Z,1000.39
2018-02-02T18:24:14.167Z,1000.39
2018-02-02T18:25:14.142Z,1000.37
2018-02-02T18:26:14.114Z,1000.39
2018-02-02T18:27:14.089Z,1000.37
2018-02-02T18:28:14.062Z,1000.40
2018-02-02T18:29:14.037Z,1000.39
2018-02-02T18:30:14.013Z,1000.41
2018-02-02T18:31:13.985Z,1000.39
2018-02-02T18:32:13.961Z,1000.39
2018-02-02T18:33:13.935Z,1000.40
2018-02-02T18:34:13.965Z,1000.41
2018-02-02T18:35:13.888Z,1000.40
2018-02-02T18:36:13.857Z,1000.42
2018-02-02T18:37:13.832Z,1000.45
2018-02-02T18:38:13.805Z,1000.44
2018-02-02T18:39:13.780Z,1000.43
2018-02-02T18:40:13.755Z,1000.46
2018-02-02T18:41:13.729Z,1000.43
2018-02-02T18:42:13.702Z,1000.46
2018-02-02T18:43:13.676Z,1000.42
2018-02-02T18:44:13.650Z,1000.38
2018-02-02T18:45:13.626Z,1000.39
2018-02-02T18:46:13.599Z,1000.41
2018-02-02T18:47:13.575Z,1000.41
2018-02-02T18:48:13.548Z,1000.41
2018-02-02T18:49:13.576Z,1000.40
2018-02-02T18:50:13.495Z,1000.40
2018-02-02T18:51:13.519Z,1000.42
2018-02-02T18:52:13.444Z,1000.37
2018-02-02T18:53:13.418Z,1000.39
2018-02-02T18:54:13.392Z,1000.40
2018-02-02T18:55:13.365Z,1000.41
2018-02-02T18:56:13.339Z,1000.42
2018-02-02T18:57:13.315Z,1000.43
2018-02-02T18:58:13.288Z,1000.44
2018-02-02T18:59:13.263Z,1000.44
2018-02-02T19:00:13.240Z,1000.43
2018-02-02T19:01:13.213Z,1000.41
2018-02-02T19:02:13.285Z,1000.44
2018-02-02T19:03:13.159Z,1000.43
2018-02-02T19:04:13.132Z,1000.45
2018-02-02T19:05:13.108Z,1000.42
2018-02-02T19:06:13.080Z,1000.45
2018-02-02T19:07:13.055Z,1000.41
2018-02-02T19:08:13.030Z,1000.42
2018-02-02T19:09:13.007Z,1000.42
2018-02-02T19:10:12.976Z,1000.50
2018-02-02T19:11:12.950Z,1000.43
2018-02-02T19:12:12.925Z,1000.48
2018-02-02T19:13:12.900Z,1000.48
2018-02-02T19:14:12.873Z,1000.48
2018-02-02T19:15:12.846Z,1000.47
2018-02-02T19:16:12.821Z,1000.49
2018-02-02T19:17:12.796Z,1000.49
2018-02-02T19:18:12.769Z,1000.46
2018-02-02T19:19:12.743Z,1000.49
2018-02-02T19:20:12.717Z,1000.51
2018-02-02T19:21:12.742Z,1000.48
2018-02-02T19:22:12.665Z,1000.54
2018-02-02T19:23:12.639Z,1000.50
2018-02-02T19:24:12.614Z,1000.54
2018-02-02T19:25:12.590Z,1000.55
2018-02-02T19:26:12.711Z,1000.55
2018-02-02T19:27:12.534Z,1000.58
2018-02-02T19:28:12.546Z,1000.57
2018-02-02T19:29:12.482Z,1000.58